Latest Weather Observations for Maroochydore

IDQ60801

Issued at 2:32 pm EST Monday 27 March 2017 (issued every 30 minutes, with the page automatically refreshed every 10 minutes)

About weather observations | Map of weather stations | Latest weather observations for QLD | Other Formats
Station Details ID: 040861 Name: SUNSHINE COAST AIRPORT Lat: -26.60 Lon: 153.09 Height: 3.3 m
Data from the previous 72 hours. | See also: Recent months at Maroochydore
Date/Time
EST
Temp
°C
App
Temp
°C
Dew
Point
°C
Rel
Hum
%
Delta-T
°C
Wind Press
QNH
hPa
Press
MSL
hPa
Rain since
9am
mm
Dir  Spd
km/h
Gust
km/h
Spd
kts
Gust
kts
27/02:00pm 27.7 27.0 20.3 64 4.9 ESE 24 32 13 17 1012.9 - 0.0
27/01:30pm 28.0 27.5 20.0 61 5.2 ESE 22 30 12 16 1013.2 - 0.0
27/01:00pm 28.4 28.4 20.9 64 5.0 ESE 22 30 12 16 1013.5 - 0.0
27/12:30pm 28.4 27.8 20.4 62 5.3 ESE 24 30 13 16 1013.9 - 0.0
27/12:00pm 28.3 28.0 20.3 62 5.3 ESE 22 28 12 15 1014.5 1014.5 0.0
27/11:30am 28.1 27.7 20.1 62 5.2 ESE 22 30 12 16 1014.8 - 0.0
27/11:00am 28.6 28.8 20.6 62 5.3 SE 20 28 11 15 1015.0 - 0.0
27/10:30am 28.0 27.3 19.5 60 5.5 ESE 22 28 12 15 1015.1 - 0.0
27/10:00am 28.1 27.7 20.1 62 5.2 SE 22 30 12 16 1015.3 - 0.0
27/09:30am 27.6 27.7 20.4 65 4.7 SE 20 26 11 14 1015.4 - 0.0
27/09:00am 27.0 27.0 20.1 66 4.5 SE 20 26 11 14 1015.4 1015.4 0.0
27/08:30am 27.0 27.0 20.1 66 4.5 SE 20 26 11 14 1015.3 - 0.0
27/08:00am 27.2 28.6 21.9 73 3.6 SE 17 22 9 12 1015.1 - 0.0
27/07:30am 25.0 27.5 21.7 82 2.2 S 11 13 6 7 1014.7 - 0.0
27/07:00am 24.3 27.1 21.6 85 1.8 S 9 15 5 8 1014.3 - 0.0
27/06:30am 23.0 25.9 21.8 93 0.8 S 9 13 5 7 1014.0 - 0.0
27/06:00am 21.8 24.5 20.6 93 0.8 SSW 7 9 4 5 1013.8 1013.8 0.0
27/05:30am 21.8 24.0 20.4 92 0.9 SW 9 9 5 5 1013.4 - 0.0
27/05:00am 22.7 24.7 20.8 89 1.2 S 11 13 6 7 1013.2 - 0.0
27/04:30am 22.9 25.6 21.4 91 1.0 S 9 13 5 7 1013.2 - 0.0
27/04:00am 22.5 25.6 21.0 91 1.0 SSW 6 9 3 5 1013.3 - 0.0
27/03:30am 22.5 25.6 21.0 91 1.0 SSW 6 7 3 4 1013.4 - 0.0
27/03:00am 22.4 25.2 20.9 91 1.0 SW 7 9 4 5 1013.6 1013.6 0.0
27/02:30am 22.3 25.1 20.8 91 1.0 SW 7 9 4 5 1013.7 - 0.0
27/02:00am 22.0 24.7 20.6 92 0.9 SW 7 7 4 4 1013.9 - 0.0
27/01:30am 21.9 24.8 20.7 93 0.8 WSW 6 7 3 4 1013.9 - 0.0
27/01:00am 21.6 24.3 20.6 94 0.6 SW 7 9 4 5 1014.2 - 0.0
27/12:30am 21.2 23.6 20.0 93 0.8 WSW 7 9 4 5 1014.5 - 0.0
27/12:00am 21.4 25.2 20.2 93 0.8 CALM 0 0 0 0 1014.6 1014.6 0.0
 
Date/Time
EST
Temp
°C
App
Temp
°C
Dew
Point
°C
Rel
Hum
%
Delta-T
°C
Wind Press
QNH
hPa
Press
MSL
hPa
Rain since
9am
mm
Dir  Spd
km/h
Gust
km/h
Spd
kts
Gust
kts
26/11:30pm 21.3 23.7 20.1 93 0.8 WSW 7 9 4 5 1014.8 - 0.0
26/11:00pm 21.6 23.7 20.1 91 1.0 WSW 9 11 5 6 1015.1 - 0.0
26/10:30pm 21.9 24.0 20.2 90 1.1 WSW 9 11 5 6 1015.2 - 0.0
26/10:00pm 22.1 23.9 19.5 85 1.7 WSW 9 11 5 6 1015.1 - 0.0
26/09:30pm 24.9 26.7 19.5 72 3.5 ENE 9 13 5 7 1015.2 - 0.0
26/09:00pm 25.2 26.6 19.6 71 3.6 E 11 15 6 8 1015.2 1015.2 0.0
26/08:30pm 25.1 26.6 19.7 72 3.5 E 11 15 6 8 1014.9 - 0.0
26/08:00pm 25.1 26.3 19.9 73 3.4 ENE 13 15 7 8 1014.6 - 0.0
26/07:30pm 25.0 26.5 19.8 73 3.4 ENE 11 13 6 7 1014.2 - 0.0
26/07:00pm 24.7 26.1 19.5 73 3.3 ENE 11 13 6 7 1013.7 - 0.0
26/06:30pm 24.3 25.9 19.1 73 3.3 ENE 9 13 5 7 1013.2 - 0.0
26/06:00pm 24.6 25.9 18.5 69 3.9 NE 9 11 5 6 1012.9 1012.9 0.0
26/05:30pm 25.6 26.7 18.8 66 4.3 ENE 11 15 6 8 1012.7 - 0.0
26/05:00pm 26.3 27.0 18.9 63 4.7 ENE 13 17 7 9 1012.5 - 0.0
26/04:30pm 26.7 27.0 18.8 62 5.1 ENE 15 19 8 10 1012.2 - 0.0
26/04:00pm 27.1 27.4 18.7 60 5.4 ENE 15 19 8 10 1012.4 - 0.0
26/03:30pm 27.0 27.1 18.3 59 5.5 E 15 20 8 11 1012.5 - 0.0
26/03:00pm 27.2 27.4 18.5 59 5.6 E 15 19 8 10 1012.5 1012.5 0.0
26/02:30pm 27.6 28.0 18.9 59 5.6 ENE 15 19 8 10 1012.2 - 0.0
26/02:00pm 28.0 28.5 19.2 58 5.7 ENE 15 20 8 11 1012.5 - 0.0
26/01:30pm 27.9 28.2 19.7 61 5.3 E 17 24 9 13 1012.8 - 0.0
26/01:00pm 27.6 27.8 19.4 61 5.3 ESE 17 22 9 12 1013.3 - 0.0
26/12:30pm 27.8 28.1 19.6 61 5.3 ESE 17 22 9 12 1013.8 - 0.0
26/12:00pm 28.1 29.3 20.6 63 4.9 SE 15 20 8 11 1014.1 1014.1 0.0
26/11:30am 27.8 28.7 19.3 60 5.5 ESE 13 20 7 11 1014.5 - 0.0
26/11:00am 27.5 27.5 19.0 59 5.5 ESE 17 22 9 12 1014.9 - 0.0
26/10:30am 28.1 29.9 21.1 65 4.6 ESE 13 19 7 10 1015.3 - 0.0
26/10:00am 27.6 28.2 19.4 61 5.3 SE 15 20 8 11 1015.5 - 0.0
26/09:30am 27.3 27.7 19.1 61 5.3 SE 15 19 8 10 1015.5 - 0.0
26/09:00am 27.4 28.6 20.0 64 4.8 SE 13 19 7 10 1015.4 1015.4 0.2
26/08:30am 26.6 27.6 19.5 65 4.6 SSE 13 19 7 10 1015.4 - 0.2
26/08:00am 25.6 27.5 20.6 74 3.3 S 11 15 6 8 1015.3 - 0.2
26/07:30am 24.0 26.9 21.1 84 1.9 SSW 7 13 4 7 1014.8 - 0.2
26/07:00am 21.7 25.7 20.5 93 0.8 CALM 0 0 0 0 1014.7 - 0.2
26/06:30am 20.4 22.6 19.6 95 0.5 SW 7 9 4 5 1014.3 - 0.2
26/06:00am 19.9 22.1 19.1 95 0.5 SW 6 9 3 5 1014.1 1014.1 0.2
26/05:30am 20.1 22.3 19.1 94 0.6 W 6 7 3 4 1013.9 - 0.2
26/05:00am 20.3 22.5 19.1 93 0.8 WSW 6 7 3 4 1013.7 - 0.2
26/04:30am 20.7 22.9 19.7 94 0.6 SW 7 9 4 5 1013.2 - 0.2
26/04:00am 20.9 23.1 19.7 93 0.8 SW 7 9 4 5 1013.0 - 0.2
26/03:30am 21.0 22.9 19.8 93 0.8 SW 9 13 5 7 1013.2 - 0.2
26/03:00am 20.8 23.1 19.5 92 0.8 WSW 6 7 3 4 1013.3 1013.3 0.2
26/02:30am 20.9 22.9 19.2 90 1.1 WSW 7 9 4 5 1013.3 - 0.2
26/02:00am 21.4 22.9 19.0 86 1.5 SW 9 15 5 8 1013.4 - 0.2
26/01:30am 22.5 23.9 18.7 79 2.4 S 9 13 5 7 1013.9 - 0.2
26/01:00am 24.5 25.3 19.1 72 3.4 ESE 13 20 7 11 1014.3 - 0.2
26/12:30am 24.6 25.2 18.5 69 3.9 ESE 13 19 7 10 1014.5 - 0.2
26/12:00am 25.0 25.2 19.4 71 3.6 ESE 17 24 9 13 1014.8 1014.8 0.2
 
Date/Time
EST
Temp
°C
App
Temp
°C
Dew
Point
°C
Rel
Hum
%
Delta-T
°C
Wind Press
QNH
hPa
Press
MSL
hPa
Rain since
9am
mm
Dir  Spd
km/h
Gust
km/h
Spd
kts
Gust
kts
25/11:30pm 24.9 25.3 19.0 69 3.8 ESE 15 20 8 11 1015.2 - 0.2
25/11:00pm 24.6 25.0 19.0 71 3.6 SE 15 20 8 11 1015.6 - 0.2
25/10:30pm 24.4 24.7 19.5 74 3.1 SE 17 24 9 13 1015.9 - 0.2
25/10:00pm 24.6 24.7 19.2 72 3.5 SE 17 20 9 11 1015.8 - 0.2
25/09:30pm 24.7 24.8 19.1 71 3.6 SE 17 24 9 13 1015.8 - 0.2
25/09:00pm 24.6 24.2 18.8 70 3.7 SE 19 24 10 13 1015.9 1015.9 0.2
25/08:30pm 24.7 23.9 18.4 68 4.0 ESE 20 26 11 14 1015.9 - 0.2
25/08:00pm 24.7 24.2 18.6 69 3.9 ESE 19 26 10 14 1015.7 - 0.2
25/07:30pm 24.8 24.1 18.7 69 3.9 ESE 20 30 11 16 1015.4 - 0.2
25/07:00pm 24.9 24.7 19.3 71 3.6 SE 19 24 10 13 1015.1 - 0.2
25/06:30pm 24.9 24.4 19.0 69 3.8 ESE 20 28 11 15 1014.8 - 0.2
25/06:00pm 24.8 24.3 18.7 69 3.9 SE 19 28 10 15 1014.6 1014.6 0.2
25/05:30pm 25.1 24.8 19.2 70 3.8 SE 19 26 10 14 1014.4 - 0.2
25/05:00pm 25.6 25.1 19.0 67 4.2 SE 20 28 11 15 1013.9 - 0.2
25/04:30pm 26.1 25.6 19.0 65 4.5 SE 20 30 11 16 1013.7 - 0.2
25/04:00pm 26.6 25.9 19.5 65 4.6 SE 22 28 12 15 1013.6 - 0.2
25/03:30pm 27.0 26.3 20.3 66 4.4 SE 24 30 13 16 1013.6 - 0.2
25/03:00pm 27.6 26.2 19.7 62 5.1 SE 26 33 14 18 1013.7 1013.7 0.2
25/02:30pm 27.8 27.4 20.9 66 4.6 SE 24 30 13 16 1013.6 - 0.2
25/02:00pm 26.6 25.8 20.0 67 4.3 SSE 24 32 13 17 1013.8 - 0.2
25/01:30pm 26.3 25.4 19.9 68 4.2 SE 24 33 13 18 1014.0 - 0.2
25/01:00pm 25.7 24.5 20.0 71 3.7 SSE 26 35 14 19 1014.1 - 0.2
25/12:30pm 26.1 24.9 20.0 69 4.0 SE 26 35 14 19 1014.5 - 0.2
25/12:00pm 26.1 24.7 19.7 68 4.1 SE 26 33 14 18 1015.0 1015.0 0.2
25/11:30am 26.4 26.3 21.4 74 3.3 SE 24 32 13 17 1015.4 - 0.2
25/11:00am 25.5 24.2 20.7 75 3.1 SE 28 39 15 21 1015.8 - 0.2
25/10:30am 25.9 24.9 21.3 76 3.0 SE 28 39 15 21 1016.2 - 0.2
25/10:00am 25.0 25.0 21.7 82 2.2 SSE 24 32 13 17 1016.2 - 0.2
25/09:44am 24.6 25.7 21.9 85 1.8 SSE 19 35 10 19 1016.1 - 0.2
25/09:30am 23.2 25.6 22.2 94 0.7 S 13 17 7 9 1016.2 - 0.2
25/09:04am 23.2 25.5 22.0 93 0.8 S 13 20 7 11 1016.1 - 0.0
25/09:00am 23.5 25.2 22.3 93 0.8 SSE 17 26 9 14 1016.1 1016.1 8.2
25/08:54am 23.5 24.3 22.5 94 0.7 SSE 22 32 12 17 1016.1 - 8.2
25/08:30am 23.0 22.9 22.2 95 0.5 SSE 26 35 14 19 1016.1 - 7.8
25/08:16am 23.5 23.6 22.5 94 0.7 SE 26 35 14 19 1015.8 - 7.4
25/08:08am 23.7 23.4 22.5 93 0.8 SE 28 35 15 19 1015.7 - 7.0
25/08:03am 23.9 24.0 22.5 92 0.9 SE 26 35 14 19 1015.6 - 6.8
25/08:00am 24.1 24.4 22.9 93 0.8 SE 26 35 14 19 1015.5 - 6.8
25/07:30am 23.3 22.8 22.1 93 0.8 ESE 28 35 15 19 1015.0 - 6.8
25/07:12am 23.4 22.0 22.2 93 0.8 SE 33 44 18 24 1014.8 - 6.4
25/07:03am 23.9 22.5 22.0 89 1.3 ESE 32 43 17 23 1014.6 - 6.4
25/07:00am 24.0 22.9 21.7 87 1.5 ESE 30 43 16 23 1014.6 - 6.4
25/06:58am 24.0 22.8 21.5 86 1.7 ESE 30 43 16 23 1014.6 - 6.4
25/06:30am 23.1 25.0 22.1 94 0.7 S 15 22 8 12 1014.4 - 6.4
25/06:00am 24.2 24.7 22.6 91 1.1 SSE 24 41 13 22 1014.1 1014.1 6.4
25/05:30am 22.8 24.2 21.8 94 0.7 S 17 22 9 12 1013.8 - 6.4
25/05:17am 22.8 25.4 22.0 95 0.5 S 11 17 6 9 1013.8 - 6.4
25/05:04am 22.8 25.4 22.0 95 0.5 SSW 11 17 6 9 1013.5 - 6.4
25/05:00am 22.6 25.2 21.9 96 0.5 SW 11 17 6 9 1013.5 - 6.4
25/04:30am 22.7 25.7 21.9 95 0.5 SW 9 17 5 9 1013.6 - 6.4
25/04:23am 22.8 25.1 22.0 95 0.5 SW 13 19 7 10 1013.6 - 6.4
25/04:09am 23.0 25.2 21.8 93 0.8 SSW 13 19 7 10 1013.5 - 6.2
25/04:00am 23.1 24.8 21.7 92 0.9 SSW 15 20 8 11 1013.5 - 6.0
25/03:50am 23.9 24.4 22.0 89 1.3 S 22 32 12 17 1013.5 - 5.6
25/03:30am 24.2 23.8 21.7 86 1.7 SE 26 33 14 18 1013.5 - 5.6
25/03:00am 23.9 24.2 22.2 90 1.1 SSE 24 33 13 18 1013.6 1013.6 5.6
25/02:59am 23.8 24.0 22.1 90 1.1 SSE 24 33 13 18 1013.6 - 5.6
25/02:30am 24.0 23.7 21.9 88 1.4 SSE 26 35 14 19 1013.9 - 5.6
25/02:00am 23.9 24.2 22.3 91 1.1 SSE 24 32 13 17 1014.0 - 5.6
25/01:47am 23.8 23.7 22.2 91 1.1 SSE 26 33 14 18 1014.2 - 5.6
25/01:45am 23.9 23.8 22.3 91 1.1 SSE 26 33 14 18 1014.2 - 5.6
25/01:30am 23.7 23.3 22.3 92 0.9 SSE 28 39 15 21 1014.3 - 5.6
25/01:17am 23.3 23.1 22.8 97 0.3 SSE 28 37 15 20 1014.5 - 5.6
25/01:03am 22.5 24.7 21.8 96 0.5 SW 13 17 7 9 1014.8 - 5.0
25/01:00am 22.5 24.7 21.8 96 0.5 SW 13 17 7 9 1014.8 - 5.0
25/12:33am 22.7 24.4 21.7 94 0.7 S 15 22 8 12 1014.9 - 3.6
25/12:30am 22.9 24.3 21.9 94 0.7 S 17 22 9 12 1015.0 - 2.8
25/12:00am 23.1 24.7 22.1 94 0.7 S 17 20 9 11 1015.0 1015.0 2.6
 
Date/Time
EST
Temp
°C
App
Temp
°C
Dew
Point
°C
Rel
Hum
%
Delta-T
°C
Wind Press
QNH
hPa
Press
MSL
hPa
Rain since
9am
mm
Dir  Spd
km/h
Gust
km/h
Spd
kts
Gust
kts
24/11:58pm 23.1 24.7 22.1 94 0.7 S 17 20 9 11 1015.1 - 2.6
24/11:30pm 23.2 24.2 22.2 94 0.7 S 20 28 11 15 1015.3 - 2.6
24/11:00pm 23.1 24.0 21.9 93 0.8 S 20 28 11 15 1015.3 - 2.6
24/10:30pm 23.1 24.2 21.9 93 0.8 S 19 28 10 15 1015.3 - 2.6
24/10:00pm 23.4 25.9 22.4 94 0.7 SSW 13 20 7 11 1015.5 - 2.6
24/09:30pm 23.2 25.2 22.2 94 0.7 SSW 15 20 8 11 1015.7 - 2.6
24/09:09pm 23.0 24.9 22.0 94 0.7 S 15 20 8 11 1015.8 - 2.6
24/09:00pm 23.0 24.9 22.0 94 0.7 S 15 22 8 12 1015.7 1015.7 2.6
24/08:43pm 23.1 24.0 21.5 91 1.1 SSE 19 28 10 15 1015.6 - 0.8
24/08:30pm 24.1 24.8 21.6 86 1.7 S 20 30 11 16 1015.5 - 0.0
24/08:00pm 24.8 25.9 21.9 84 1.9 S 19 24 10 13 1015.1 - 0.0
24/07:30pm 25.5 27.3 21.2 77 2.8 S 13 17 7 9 1014.9 - 0.0
24/07:00pm 25.6 28.1 21.7 79 2.6 SSE 11 15 6 8 1014.4 - 0.0
24/06:30pm 25.6 28.1 21.7 79 2.6 SSE 11 17 6 9 1014.2 - 0.0
24/06:00pm 25.6 28.1 21.7 79 2.6 SE 11 13 6 7 1014.0 1014.0 0.0
24/05:30pm 25.6 28.5 21.7 79 2.6 SE 9 11 5 6 1013.7 - 0.0
24/05:00pm 25.8 28.8 21.2 76 3.0 ESE 7 11 4 6 1013.3 - 0.0
24/04:30pm 26.4 29.6 21.6 75 3.2 ENE 7 11 4 6 1013.2 - 0.0
24/04:00pm 26.1 28.6 21.1 74 3.3 ENE 9 11 5 6 1012.9 - 0.0
24/03:30pm 27.0 29.5 21.1 70 3.9 ENE 9 13 5 7 1012.8 - 0.0
24/03:00pm 27.5 29.4 21.3 69 4.1 NE 13 17 7 9 1012.9 1012.9 0.0

Other Formats:

Comma delimited format used in spreadsheet applications
http://www.bom.gov.au/fwo/IDQ60801/IDQ60801.94569.axf

JavaScript Object Notation format (JSON) in row-major order
http://www.bom.gov.au/fwo/IDQ60801/IDQ60801.94569.json